Time;durP1;ratioP1;P1;durP2;ratioP2;P2;SDS_P1;SDS_P2;PMS_P1;PMS_P2;Temp;Humidity;BMP_temperature;BMP_pressure;BME280_temperature;BME280_humidity;BME280_pressure;Samples;Min_cycle;Max_cycle;Signal;HPM_P1;HPM_P2
2022/07/23 00:00:07;;;;;;;6.80;6.20;;;;;;;;;;5046304;28;20484;-76
2022/07/23 00:02:36;;;;;;;7.30;6.70;;;;;;;;;;5030630;28;20458;-76
2022/07/23 00:05:03;;;;;;;6.20;5.80;;;;;;;;;;5032032;28;21070;-78
2022/07/23 00:07:30;;;;;;;6.10;5.60;;;;;;;;;;5032542;28;20442;-77
2022/07/23 00:09:57;;;;;;;6.00;5.60;;;;;;;;;;5051502;28;20499;-77
2022/07/23 00:12:24;;;;;;;6.17;5.77;;;;;;;;;;5055105;28;20494;-77
2022/07/23 00:14:51;;;;;;;6.37;5.97;;;;;;;;;;5056476;28;20441;-77
2022/07/23 00:17:18;;;;;;;6.13;5.70;;;;;;;;;;5054796;28;20515;-77
2022/07/23 00:19:46;;;;;;;6.47;6.00;;;;;;;;;;5055132;28;20437;-76
2022/07/23 00:22:14;;;;;;;6.27;5.87;;;;;;;;;;5054355;28;20496;-77
2022/07/23 00:24:41;;;;;;;7.33;6.70;;;;;;;;;;5055254;28;20515;-76
2022/07/23 00:27:08;;;;;;;6.33;5.83;;;;;;;;;;5055102;28;20445;-77
2022/07/23 00:29:35;;;;;;;6.33;5.93;;;;;;;;;;5054807;28;20554;-76
2022/07/23 00:32:02;;;;;;;6.37;5.83;;;;;;;;;;5054423;28;20433;-76
2022/07/23 00:34:29;;;;;;;6.33;5.80;;;;;;;;;;5053942;28;20461;-76
2022/07/23 00:36:57;;;;;;;5.90;5.37;;;;;;;;;;5054636;28;20515;-76
2022/07/23 00:39:24;;;;;;;6.00;5.50;;;;;;;;;;5054396;28;20855;-76
2022/07/23 00:41:52;;;;;;;5.73;5.33;;;;;;;;;;5054882;28;20488;-77
2022/07/23 00:44:20;;;;;;;6.37;5.83;;;;;;;;;;5059031;28;20457;-77
2022/07/23 00:46:48;;;;;;;6.00;5.60;;;;;;;;;;5060717;28;20445;-77
2022/07/23 00:49:16;;;;;;;5.53;5.03;;;;;;;;;;5061585;28;20469;-75
2022/07/23 00:51:43;;;;;;;5.03;4.73;;;;;;;;;;5055205;28;20442;-77
2022/07/23 00:54:12;;;;;;;5.63;5.23;;;;;;;;;;5047302;28;20821;-77
2022/07/23 00:56:39;;;;;;;6.20;5.80;;;;;;;;;;5044317;28;20442;-76
2022/07/23 00:59:07;;;;;;;6.00;5.60;;;;;;;;;;5034689;28;20496;-76
2022/07/23 01:01:34;;;;;;;5.60;5.20;;;;;;;;;;5034410;28;20488;-76
2022/07/23 01:04:01;;;;;;;5.97;5.57;;;;;;;;;;5034324;28;20474;-77
2022/07/23 01:06:28;;;;;;;6.00;5.60;;;;;;;;;;5034600;28;20509;-77
2022/07/23 01:08:56;;;;;;;6.20;5.80;;;;;;;;;;5037349;28;20486;-77
2022/07/23 01:11:25;;;;;;;6.17;5.67;;;;;;;;;;5058455;28;20437;-76
2022/07/23 01:13:52;;;;;;;6.13;5.63;;;;;;;;;;5058358;28;20465;-76
2022/07/23 01:16:19;;;;;;;5.70;5.40;;;;;;;;;;5054127;28;20544;-77
2022/07/23 01:18:46;;;;;;;5.53;5.23;;;;;;;;;;5053846;28;20434;-76
2022/07/23 01:21:13;;;;;;;5.77;5.13;;;;;;;;;;5053421;28;20457;-77
2022/07/23 01:23:42;;;;;;;7.40;6.90;;;;;;;;;;5053347;28;20465;-76
2022/07/23 01:26:09;;;;;;;6.40;5.80;;;;;;;;;;5053559;28;20499;-76
2022/07/23 01:28:36;;;;;;;6.30;5.80;;;;;;;;;;5053843;28;20477;-76
2022/07/23 01:31:04;;;;;;;6.10;5.70;;;;;;;;;;5054053;28;20499;-76
2022/07/23 01:33:31;;;;;;;6.13;5.73;;;;;;;;;;5053437;28;20480;-77
2022/07/23 01:35:58;;;;;;;6.27;5.87;;;;;;;;;;5053745;28;20520;-76
2022/07/23 01:38:25;;;;;;;5.73;5.43;;;;;;;;;;5054897;28;20433;-76
2022/07/23 01:40:53;;;;;;;6.07;5.67;;;;;;;;;;5053408;28;20450;-76
2022/07/23 01:43:20;;;;;;;5.87;5.50;;;;;;;;;;5052875;28;20839;-76
2022/07/23 01:45:47;;;;;;;6.97;6.40;;;;;;;;;;5053013;28;20442;-76
2022/07/23 01:48:15;;;;;;;6.03;5.53;;;;;;;;;;5053065;28;20921;-77
2022/07/23 01:50:42;;;;;;;6.30;5.83;;;;;;;;;;5052881;28;20487;-76
2022/07/23 01:53:09;;;;;;;6.77;6.13;;;;;;;;;;5052479;28;20461;-76
2022/07/23 01:55:36;;;;;;;6.27;5.63;;;;;;;;;;5052405;28;20967;-77
2022/07/23 01:58:05;;;;;;;5.50;5.10;;;;;;;;;;5053669;28;20442;-77
2022/07/23 02:00:32;;;;;;;6.07;5.57;;;;;;;;;;5053095;28;20453;-76
2022/07/23 02:02:59;;;;;;;6.13;5.73;;;;;;;;;;5052245;28;20531;-76
2022/07/23 02:05:28;;;;;;;6.47;6.07;;;;;;;;;;5052678;28;20499;-78
2022/07/23 02:07:55;;;;;;;9.43;5.70;;;;;;;;;;5052612;28;20511;-76
2022/07/23 02:10:22;;;;;;;5.37;5.07;;;;;;;;;;5052686;28;20473;-77
2022/07/23 02:12:49;;;;;;;7.33;6.83;;;;;;;;;;5052800;28;20466;-76
2022/07/23 02:15:18;;;;;;;5.73;5.10;;;;;;;;;;5052778;28;20449;-76
2022/07/23 02:17:45;;;;;;;6.53;6.03;;;;;;;;;;5052824;28;21007;-77
2022/07/23 02:20:13;;;;;;;6.67;6.03;;;;;;;;;;5052641;28;20491;-76
2022/07/23 02:22:40;;;;;;;6.27;5.77;;;;;;;;;;5052353;28;20446;-76
2022/07/23 02:25:08;;;;;;;6.27;5.87;;;;;;;;;;5052459;28;20434;-78
2022/07/23 02:27:35;;;;;;;5.93;5.53;;;;;;;;;;5052258;28;20445;-76
2022/07/23 02:30:02;;;;;;;6.00;5.60;;;;;;;;;;5052737;28;20482;-76
2022/07/23 02:32:31;;;;;;;6.57;6.07;;;;;;;;;;5051720;28;20446;-76
2022/07/23 02:34:58;;;;;;;6.13;5.73;;;;;;;;;;5052014;28;21008;-76
2022/07/23 02:37:25;;;;;;;6.00;5.60;;;;;;;;;;5052082;28;20499;-76
2022/07/23 02:39:52;;;;;;;7.00;6.40;;;;;;;;;;5052607;28;20449;-75
2022/07/23 02:42:19;;;;;;;7.93;6.20;;;;;;;;;;5052406;28;20449;-77
2022/07/23 02:44:46;;;;;;;5.97;5.57;;;;;;;;;;5052590;28;20500;-76
2022/07/23 02:47:13;;;;;;;6.43;6.03;;;;;;;;;;5052402;28;20999;-76
2022/07/23 02:49:41;;;;;;;6.60;6.00;;;;;;;;;;5052026;28;20477;-76
2022/07/23 02:52:10;;;;;;;6.50;6.00;;;;;;;;;;5051968;28;20438;-77
2022/07/23 02:54:37;;;;;;;6.80;6.30;;;;;;;;;;5051666;28;20964;-76
2022/07/23 02:57:04;;;;;;;6.03;5.63;;;;;;;;;;5051973;28;20445;-76
2022/07/23 02:59:31;;;;;;;6.27;5.87;;;;;;;;;;5051904;28;20434;-76
2022/07/23 03:01:58;;;;;;;6.37;5.93;;;;;;;;;;5052012;28;20511;-76
2022/07/23 03:04:25;;;;;;;6.30;5.90;;;;;;;;;;5051758;28;20523;-76
2022/07/23 03:06:53;;;;;;;6.97;6.47;;;;;;;;;;5052034;28;20964;-76
2022/07/23 03:09:20;;;;;;;6.37;5.97;;;;;;;;;;5046628;28;20569;-76
2022/07/23 03:11:47;;;;;;;6.07;5.67;;;;;;;;;;5032228;28;20450;-78
2022/07/23 03:14:16;;;;;;;6.23;5.73;;;;;;;;;;5031561;28;20516;-75
2022/07/23 03:16:43;;;;;;;5.97;5.57;;;;;;;;;;5031510;28;20443;-77
2022/07/23 03:19:10;;;;;;;5.87;5.40;;;;;;;;;;5031479;28;20442;-76
2022/07/23 03:21:40;;;;;;;6.13;5.73;;;;;;;;;;5033292;28;20442;-76
2022/07/23 03:24:08;;;;;;;5.90;5.40;;;;;;;;;;5031805;28;20473;-76
2022/07/23 03:26:35;;;;;;;6.40;5.97;;;;;;;;;;5032136;28;20533;-76
2022/07/23 03:29:03;;;;;;;5.87;5.47;;;;;;;;;;5031893;28;20485;-77
2022/07/23 03:31:31;;;;;;;6.13;5.73;;;;;;;;;;5030963;28;20443;-76
2022/07/23 03:33:58;;;;;;;5.63;5.23;;;;;;;;;;5031084;28;20552;-77
2022/07/23 03:36:25;;;;;;;6.43;6.03;;;;;;;;;;5031772;28;20447;-78
2022/07/23 03:38:52;;;;;;;7.00;6.40;;;;;;;;;;5032196;28;20497;-77
2022/07/23 03:41:20;;;;;;;7.57;6.60;;;;;;;;;;5031382;28;20500;-78
2022/07/23 03:43:47;;;;;;;6.57;6.10;;;;;;;;;;5033117;28;20463;-76
2022/07/23 03:46:14;;;;;;;6.10;5.53;;;;;;;;;;5035657;28;20475;-77
2022/07/23 03:48:41;;;;;;;6.40;6.00;;;;;;;;;;5035088;28;20454;-76
2022/07/23 03:51:08;;;;;;;6.83;6.33;;;;;;;;;;5035204;28;20454;-76
2022/07/23 03:53:35;;;;;;;6.70;6.10;;;;;;;;;;5034593;28;20462;-75
2022/07/23 03:56:02;;;;;;;6.57;6.10;;;;;;;;;;5034647;28;20930;-75
2022/07/23 03:58:31;;;;;;;5.73;5.43;;;;;;;;;;5035185;28;20450;-76
2022/07/23 04:00:58;;;;;;;6.50;6.00;;;;;;;;;;5035587;28;20442;-76
2022/07/23 04:03:25;;;;;;;7.17;6.57;;;;;;;;;;5035242;28;20577;-77
2022/07/23 04:05:52;;;;;;;6.77;6.27;;;;;;;;;;5034836;28;20442;-76
2022/07/23 04:08:19;;;;;;;7.60;6.67;;;;;;;;;;5034738;28;20914;-77
2022/07/23 04:10:46;;;;;;;7.27;6.67;;;;;;;;;;5051603;28;20546;-76
2022/07/23 04:13:14;;;;;;;6.30;5.80;;;;;;;;;;5054240;28;20457;-76
2022/07/23 04:15:42;;;;;;;7.03;6.60;;;;;;;;;;5056147;28;20442;-76
2022/07/23 04:18:09;;;;;;;6.77;6.10;;;;;;;;;;5055592;28;20503;-76
2022/07/23 04:20:36;;;;;;;6.67;6.17;;;;;;;;;;5055067;28;20488;-76
2022/07/23 04:23:03;;;;;;;7.30;6.80;;;;;;;;;;5055628;28;20460;-75
2022/07/23 04:25:30;;;;;;;7.43;6.93;;;;;;;;;;5056496;28;20453;-78
2022/07/23 04:27:57;;;;;;;6.47;5.97;;;;;;;;;;5054653;28;20910;-76
2022/07/23 04:30:24;;;;;;;7.40;6.90;;;;;;;;;;5053000;28;20476;-75
2022/07/23 04:32:52;;;;;;;7.47;6.87;;;;;;;;;;5053256;28;20462;-75
2022/07/23 04:35:20;;;;;;;6.63;6.23;;;;;;;;;;5045192;28;20999;-75
2022/07/23 04:37:47;;;;;;;6.70;6.20;;;;;;;;;;5054640;28;20466;-75
2022/07/23 04:40:14;;;;;;;6.93;6.53;;;;;;;;;;5054713;28;20438;-75
2022/07/23 04:42:41;;;;;;;6.87;6.37;;;;;;;;;;5036931;28;20435;-76
2022/07/23 04:45:08;;;;;;;7.37;6.77;;;;;;;;;;5036168;28;20443;-77
2022/07/23 04:47:35;;;;;;;6.73;6.23;;;;;;;;;;5035759;28;20439;-75
2022/07/23 04:50:04;;;;;;;7.03;6.53;;;;;;;;;;5035359;28;20462;-75
2022/07/23 04:52:31;;;;;;;6.83;6.37;;;;;;;;;;5035280;28;20521;-76
2022/07/23 04:54:58;;;;;;;7.93;6.67;;;;;;;;;;5037448;28;20577;-77
2022/07/23 04:57:25;;;;;;;7.97;7.30;;;;;;;;;;5036003;28;20875;-76
2022/07/23 04:59:52;;;;;;;7.47;6.77;;;;;;;;;;5036032;28;20438;-75
2022/07/23 05:02:19;;;;;;;7.53;6.93;;;;;;;;;;5037319;28;20465;-76
2022/07/23 05:04:46;;;;;;;6.93;6.53;;;;;;;;;;5039101;28;20470;-75
2022/07/23 05:07:14;;;;;;;7.30;6.70;;;;;;;;;;5040562;28;20880;-76
2022/07/23 05:09:42;;;;;;;7.90;7.30;;;;;;;;;;5048790;28;20477;-77
2022/07/23 05:12:09;;;;;;;7.13;6.53;;;;;;;;;;5060403;28;20441;-76
2022/07/23 05:14:36;;;;;;;7.20;6.60;;;;;;;;;;5058075;28;20457;-76
2022/07/23 05:17:03;;;;;;;7.20;6.60;;;;;;;;;;5058845;28;20886;-76
2022/07/23 05:19:30;;;;;;;6.77;6.30;;;;;;;;;;5057063;28;20445;-77
2022/07/23 05:21:57;;;;;;;7.40;6.90;;;;;;;;;;5054597;28;20450;-76
2022/07/23 05:24:25;;;;;;;7.40;6.97;;;;;;;;;;5054263;28;20478;-76
2022/07/23 05:26:52;;;;;;;7.23;6.60;;;;;;;;;;5054438;28;20437;-77
2022/07/23 05:29:19;;;;;;;6.70;6.20;;;;;;;;;;5054309;28;20819;-76
2022/07/23 05:31:46;;;;;;;6.47;6.07;;;;;;;;;;5054134;28;20445;-76
2022/07/23 05:34:13;;;;;;;7.37;6.87;;;;;;;;;;5053988;28;20468;-76
2022/07/23 05:36:40;;;;;;;7.20;6.70;;;;;;;;;;5054252;28;20926;-76
2022/07/23 05:39:07;;;;;;;8.07;7.37;;;;;;;;;;5054209;28;20449;-77
2022/07/23 05:41:36;;;;;;;7.00;6.40;;;;;;;;;;5054219;28;21005;-76
2022/07/23 05:44:03;;;;;;;6.43;5.97;;;;;;;;;;5050905;28;20885;-76
2022/07/23 05:46:30;;;;;;;6.80;6.30;;;;;;;;;;5052164;28;20441;-78
2022/07/23 05:48:57;;;;;;;7.40;6.90;;;;;;;;;;5054042;28;20449;-79
2022/07/23 05:51:25;;;;;;;7.37;6.87;;;;;;;;;;5046442;28;20474;-77
2022/07/23 05:53:52;;;;;;;7.20;6.73;;;;;;;;;;5041237;28;20549;-77
2022/07/23 05:56:19;;;;;;;7.90;7.30;;;;;;;;;;5047682;28;21106;-77
2022/07/23 05:58:48;;;;;;;7.10;6.60;;;;;;;;;;5052980;28;20518;-77
2022/07/23 06:01:15;;;;;;;8.03;7.33;;;;;;;;;;5053461;28;20925;-79
2022/07/23 06:03:42;;;;;;;7.33;6.73;;;;;;;;;;5052955;28;20519;-81
2022/07/23 06:06:09;;;;;;;7.70;7.20;;;;;;;;;;5034916;28;20442;-78
2022/07/23 06:08:36;;;;;;;7.17;6.67;;;;;;;;;;5034992;28;20792;-78
2022/07/23 06:11:03;;;;;;;7.50;7.00;;;;;;;;;;5055058;28;20847;-78
2022/07/23 06:13:30;;;;;;;7.33;6.83;;;;;;;;;;5052876;28;20491;-77
2022/07/23 06:15:58;;;;;;;7.73;7.10;;;;;;;;;;5052920;28;20446;-75
2022/07/23 06:18:25;;;;;;;7.10;6.70;;;;;;;;;;5052399;28;20499;-75
2022/07/23 06:20:52;;;;;;;8.27;7.67;;;;;;;;;;5053033;28;20441;-77
2022/07/23 06:23:19;;;;;;;7.30;6.80;;;;;;;;;;5053602;28;20462;-75
2022/07/23 06:25:46;;;;;;;6.90;6.50;;;;;;;;;;5052938;28;20441;-76
2022/07/23 06:28:13;;;;;;;7.60;7.10;;;;;;;;;;5052814;28;20438;-76
2022/07/23 06:30:40;;;;;;;7.60;7.10;;;;;;;;;;5052881;28;20535;-75
2022/07/23 06:33:09;;;;;;;7.70;7.20;;;;;;;;;;5052511;28;20465;-76
2022/07/23 06:35:36;;;;;;;7.87;7.27;;;;;;;;;;5051891;28;20445;-76
2022/07/23 06:38:03;;;;;;;7.27;6.70;;;;;;;;;;5051224;28;20450;-77
2022/07/23 06:40:30;;;;;;;7.63;7.03;;;;;;;;;;5052276;28;20438;-75
2022/07/23 06:42:57;;;;;;;7.63;7.03;;;;;;;;;;5050961;28;20454;-76
2022/07/23 06:45:24;;;;;;;7.70;7.00;;;;;;;;;;5050397;28;20952;-76
2022/07/23 06:47:51;;;;;;;8.73;8.03;;;;;;;;;;5051399;28;20499;-75
2022/07/23 06:50:20;;;;;;;8.47;7.83;;;;;;;;;;5047556;28;20508;-75
2022/07/23 06:52:47;;;;;;;8.20;7.53;;;;;;;;;;5044176;28;20469;-77
2022/07/23 06:55:14;;;;;;;8.00;6.97;;;;;;;;;;5051061;28;20454;-76
2022/07/23 06:57:41;;;;;;;7.80;7.10;;;;;;;;;;5033025;28;20504;-76
2022/07/23 07:00:08;;;;;;;7.90;7.30;;;;;;;;;;5031116;28;20513;-77
2022/07/23 07:02:35;;;;;;;7.63;7.13;;;;;;;;;;5030910;28;20533;-75
2022/07/23 07:05:02;;;;;;;8.00;7.40;;;;;;;;;;5037345;28;20507;-75
2022/07/23 07:07:31;;;;;;;7.57;7.07;;;;;;;;;;5050734;28;20933;-75
2022/07/23 07:09:58;;;;;;;8.00;7.20;;;;;;;;;;5051256;28;20499;-75
2022/07/23 07:12:25;;;;;;;8.53;7.83;;;;;;;;;;5057113;28;20449;-75
2022/07/23 07:14:53;;;;;;;8.10;7.57;;;;;;;;;;5062625;28;20513;-77
2022/07/23 07:17:20;;;;;;;7.77;7.20;;;;;;;;;;5053403;28;20469;-76
2022/07/23 07:19:47;;;;;;;8.87;8.10;;;;;;;;;;5055669;28;20511;-77
2022/07/23 07:22:14;;;;;;;8.40;7.50;;;;;;;;;;5055705;28;20495;-76
2022/07/23 07:24:42;;;;;;;8.30;7.70;;;;;;;;;;5054608;28;20461;-76
2022/07/23 07:27:09;;;;;;;8.30;7.60;;;;;;;;;;5059125;28;20441;-75
2022/07/23 07:29:36;;;;;;;8.53;7.83;;;;;;;;;;5078460;28;20452;-75
2022/07/23 07:32:03;;;;;;;8.40;7.70;;;;;;;;;;5062535;28;20503;-76
2022/07/23 07:34:30;;;;;;;8.63;7.97;;;;;;;;;;5063112;28;20461;-76
2022/07/23 07:36:57;;;;;;;7.90;7.37;;;;;;;;;;5070170;28;20437;-76
2022/07/23 07:39:24;;;;;;;8.13;7.33;;;;;;;;;;5064215;28;20811;-75
2022/07/23 07:41:53;;;;;;;7.97;7.37;;;;;;;;;;5056935;28;20442;-77
2022/07/23 07:44:20;;;;;;;8.63;7.83;;;;;;;;;;5053082;28;21079;-77
2022/07/23 07:46:47;;;;;;;8.37;7.67;;;;;;;;;;5057038;28;20477;-76
2022/07/23 07:49:17;;;;;;;8.90;8.10;;;;;;;;;;5050032;28;20438;-76
2022/07/23 07:51:44;;;;;;;7.63;7.13;;;;;;;;;;5035277;28;20807;-76
2022/07/23 07:54:11;;;;;;;8.20;7.60;;;;;;;;;;5035147;28;20478;-76
2022/07/23 07:56:38;;;;;;;8.43;7.83;;;;;;;;;;5034910;28;20477;-77
2022/07/23 07:59:07;;;;;;;7.50;7.00;;;;;;;;;;5044391;28;20457;-75
2022/07/23 08:01:34;;;;;;;7.77;7.00;;;;;;;;;;5044336;28;20439;-76
2022/07/23 08:04:01;;;;;;;8.57;7.87;;;;;;;;;;5044832;28;20497;-76
2022/07/23 08:06:28;;;;;;;7.57;7.00;;;;;;;;;;5045695;28;20446;-78
2022/07/23 08:08:55;;;;;;;8.30;7.70;;;;;;;;;;5046451;28;21280;-77
2022/07/23 08:11:22;;;;;;;8.10;7.40;;;;;;;;;;5060922;28;20535;-78
2022/07/23 08:13:49;;;;;;;10.30;9.43;;;;;;;;;;5048410;28;20892;-77
2022/07/23 08:16:18;;;;;;;7.63;7.13;;;;;;;;;;5054020;28;20496;-76
2022/07/23 08:18:45;;;;;;;8.30;7.50;;;;;;;;;;5035985;28;20438;-77
2022/07/23 08:21:12;;;;;;;7.10;6.63;;;;;;;;;;5034229;28;20454;-76
2022/07/23 08:23:39;;;;;;;7.10;6.60;;;;;;;;;;5046750;28;20459;-76
2022/07/23 08:26:06;;;;;;;9.77;8.47;;;;;;;;;;5043830;28;20449;-77
2022/07/23 08:28:33;;;;;;;7.60;7.00;;;;;;;;;;5043502;28;20542;-77
2022/07/23 08:31:01;;;;;;;7.00;6.50;;;;;;;;;;5039777;28;20898;-76
2022/07/23 08:33:29;;;;;;;7.90;7.30;;;;;;;;;;5034794;28;20463;-78
2022/07/23 08:35:56;;;;;;;7.53;6.93;;;;;;;;;;5033840;28;20836;-76
2022/07/23 08:38:24;;;;;;;7.67;6.97;;;;;;;;;;5034443;28;20442;-77
2022/07/23 08:40:52;;;;;;;7.17;6.67;;;;;;;;;;5035357;28;20449;-77
2022/07/23 08:43:21;;;;;;;8.30;7.70;;;;;;;;;;5034610;28;20470;-76
2022/07/23 08:45:48;;;;;;;7.00;6.60;;;;;;;;;;5035411;28;20458;-77
2022/07/23 08:48:16;;;;;;;7.57;7.07;;;;;;;;;;5034758;28;20450;-78
2022/07/23 08:50:46;;;;;;;7.50;7.00;;;;;;;;;;5035883;28;20536;-77
2022/07/23 08:53:13;;;;;;;7.73;7.13;;;;;;;;;;5052414;28;20469;-78
2022/07/23 08:55:40;;;;;;;7.70;7.10;;;;;;;;;;5053941;28;20832;-78
2022/07/23 08:58:07;;;;;;;8.10;7.50;;;;;;;;;;5049894;28;20445;-76
2022/07/23 09:00:34;;;;;;;7.70;7.20;;;;;;;;;;5054035;28;20832;-76
2022/07/23 09:03:01;;;;;;;7.70;7.10;;;;;;;;;;5043644;28;20516;-78
2022/07/23 09:05:28;;;;;;;7.50;7.00;;;;;;;;;;5036209;28;20454;-79
2022/07/23 09:08:10;;;;;;;7.40;6.90;;;;;;;;;;5040427;28;20950;-76
2022/07/23 09:10:45;;;;;;;7.97;7.37;;;;;;;;;;5070219;28;20447;-76
2022/07/23 09:13:24;;;;;;;7.23;6.73;;;;;;;;;;5074264;28;20480;-76
2022/07/23 09:15:51;;;;;;;7.70;7.20;;;;;;;;;;5071598;28;20487;-76
2022/07/23 09:18:18;;;;;;;7.23;6.73;;;;;;;;;;5071125;28;20476;-77
2022/07/23 09:20:45;;;;;;;7.67;7.07;;;;;;;;;;5072991;28;20445;-77
2022/07/23 09:23:13;;;;;;;7.07;6.67;;;;;;;;;;5074144;28;20458;-76
2022/07/23 09:25:41;;;;;;;9.30;7.00;;;;;;;;;;5091069;28;20452;-77
2022/07/23 09:28:08;;;;;;;7.40;6.90;;;;;;;;;;5087284;28;20451;-78
2022/07/23 09:30:35;;;;;;;7.57;6.97;;;;;;;;;;5079105;28;20463;-78
2022/07/23 09:33:06;;;;;;;7.93;7.40;;;;;;;;;;5076187;28;20492;-78
2022/07/23 09:35:46;;;;;;;8.07;7.37;;;;;;;;;;5076657;28;20453;-77
2022/07/23 09:38:14;;;;;;;7.63;7.03;;;;;;;;;;5075460;28;20444;-77
2022/07/23 09:40:41;;;;;;;7.60;7.10;;;;;;;;;;5073237;28;20444;-77
2022/07/23 09:43:09;;;;;;;6.90;6.40;;;;;;;;;;5074218;28;20464;-78
2022/07/23 09:45:39;;;;;;;6.97;6.57;;;;;;;;;;5073865;28;20452;-77
2022/07/23 09:48:13;;;;;;;6.73;6.33;;;;;;;;;;5073755;28;20448;-78
2022/07/23 09:50:41;;;;;;;7.83;7.33;;;;;;;;;;5072992;28;20440;-77
2022/07/23 09:53:08;;;;;;;7.83;7.23;;;;;;;;;;5072551;28;20846;-77
2022/07/23 09:55:38;;;;;;;7.00;6.50;;;;;;;;;;5073779;28;20484;-81
2022/07/23 09:58:07;;;;;;;7.03;6.57;;;;;;;;;;5074220;28;20449;-78
2022/07/23 10:00:34;;;;;;;7.47;6.77;;;;;;;;;;5072948;28;20452;-79
2022/07/23 10:03:02;;;;;;;6.87;6.37;;;;;;;;;;5072581;28;20476;-77
2022/07/23 10:05:30;;;;;;;6.57;6.10;;;;;;;;;;5073218;28;20897;-80
2022/07/23 10:07:57;;;;;;;7.40;6.80;;;;;;;;;;5073741;28;20449;-78
2022/07/23 10:10:26;;;;;;;6.90;6.40;;;;;;;;;;5058873;28;20437;-77
2022/07/23 10:15:48;;;;;;;7.00;6.50;;;;;;;;;;5052577;28;20470;-77
2022/07/23 10:18:15;;;;;;;7.20;6.70;;;;;;;;;;5052807;28;20438;-79
2022/07/23 10:20:42;;;;;;;6.47;5.97;;;;;;;;;;5053374;28;20438;-78
2022/07/23 10:23:13;;;;;;;6.83;6.43;;;;;;;;;;5053589;28;20516;-78
2022/07/23 10:25:43;;;;;;;6.63;6.13;;;;;;;;;;5050526;28;20859;-77
2022/07/23 10:28:32;;;;;;;6.63;6.13;;;;;;;;;;5054780;28;20449;-78
2022/07/23 10:31:04;;;;;;;6.47;5.97;;;;;;;;;;5016250;28;20454;-79
2022/07/23 10:33:33;;;;;;;6.30;5.90;;;;;;;;;;5032251;28;20520;-78
2022/07/23 10:36:03;;;;;;;6.50;6.00;;;;;;;;;;5032651;28;20464;-78
2022/07/23 10:38:32;;;;;;;5.77;5.43;;;;;;;;;;5032386;28;20527;-77
2022/07/23 10:41:00;;;;;;;6.63;6.23;;;;;;;;;;5032157;28;20490;-77
2022/07/23 10:43:27;;;;;;;6.57;6.07;;;;;;;;;;5032402;28;20517;-77
2022/07/23 10:45:55;;;;;;;6.60;6.10;;;;;;;;;;5033891;28;20447;-76
2022/07/23 10:48:25;;;;;;;6.60;6.20;;;;;;;;;;5049153;28;20441;-77
2022/07/23 10:51:09;;;;;;;5.87;5.50;;;;;;;;;;5054957;28;21007;-78
2022/07/23 10:53:54;;;;;;;6.23;5.90;;;;;;;;;;5050721;28;20473;-76
2022/07/23 10:56:36;;;;;;;6.90;6.40;;;;;;;;;;5050324;28;20831;-78
2022/07/23 10:59:05;;;;;;;6.10;5.70;;;;;;;;;;5043128;28;20504;-77
2022/07/23 11:01:36;;;;;;;5.57;5.17;;;;;;;;;;5051270;28;20449;-77
2022/07/23 11:04:07;;;;;;;5.70;5.40;;;;;;;;;;5050198;28;20820;-77
2022/07/23 11:06:52;;;;;;;6.70;6.30;;;;;;;;;;5051412;28;20450;-77
2022/07/23 11:09:26;;;;;;;7.37;6.77;;;;;;;;;;5051401;28;20476;-78
2022/07/23 11:12:08;;;;;;;5.90;5.57;;;;;;;;;;5050631;28;20559;-77
2022/07/23 11:14:49;;;;;;;6.57;6.00;;;;;;;;;;5049871;28;20882;-78
2022/07/23 11:17:20;;;;;;;6.70;6.20;;;;;;;;;;5050349;28;21018;-77
2022/07/23 11:20:02;;;;;;;6.47;6.07;;;;;;;;;;5050398;28;20442;-77
2022/07/23 11:22:36;;;;;;;6.43;6.03;;;;;;;;;;5041184;28;20441;-77
2022/07/23 11:25:05;;;;;;;7.10;6.60;;;;;;;;;;5051076;28;20421;-77
2022/07/23 11:27:38;;;;;;;5.80;5.50;;;;;;;;;;5051740;28;20441;-77
2022/07/23 11:30:09;;;;;;;6.07;5.67;;;;;;;;;;5053137;28;20835;-77
2022/07/23 11:32:38;;;;;;;6.00;5.60;;;;;;;;;;5051765;28;20460;-78
2022/07/23 11:35:20;;;;;;;6.73;6.13;;;;;;;;;;5052333;28;20449;-76
2022/07/23 11:37:47;;;;;;;6.60;6.20;;;;;;;;;;5052274;28;20520;-77
2022/07/23 11:40:17;;;;;;;7.40;6.90;;;;;;;;;;5051482;28;20456;-77
2022/07/23 11:42:52;;;;;;;6.50;6.10;;;;;;;;;;5051355;28;20444;-76
2022/07/23 11:45:19;;;;;;;6.67;6.27;;;;;;;;;;5051584;28;20441;-76
2022/07/23 11:47:46;;;;;;;7.13;6.63;;;;;;;;;;5050952;28;21018;-77
2022/07/23 11:50:14;;;;;;;7.17;6.63;;;;;;;;;;5053866;28;20426;-78
2022/07/23 11:52:41;;;;;;;6.87;6.37;;;;;;;;;;5056664;28;20477;-77
2022/07/23 11:55:09;;;;;;;6.93;6.53;;;;;;;;;;5052892;28;20464;-76
2022/07/23 11:57:39;;;;;;;6.50;6.00;;;;;;;;;;5053109;28;20449;-77
2022/07/23 12:00:07;;;;;;;7.50;6.90;;;;;;;;;;5053483;28;20480;-77
2022/07/23 12:02:34;;;;;;;6.87;6.40;;;;;;;;;;5052519;28;20541;-75
2022/07/23 12:05:01;;;;;;;8.47;6.80;;;;;;;;;;5054789;28;20449;-76
2022/07/23 12:07:30;;;;;;;6.93;6.53;;;;;;;;;;5055136;28;21048;-78
2022/07/23 12:09:57;;;;;;;7.63;7.10;;;;;;;;;;5055558;28;20874;-77
2022/07/23 12:14:58;;;;;;;7.20;6.60;;;;;;;;;;5087367;22;20548;-77
2022/07/23 12:17:29;;;;;;;7.20;6.70;;;;;;;;;;5050654;28;20856;-76
2022/07/23 12:19:57;;;;;;;7.50;6.90;;;;;;;;;;5055508;28;20445;-78
2022/07/23 12:22:35;;;;;;;7.90;7.30;;;;;;;;;;5055656;28;20438;-78
2022/07/23 12:25:04;;;;;;;6.97;6.57;;;;;;;;;;5035960;28;20423;-78
2022/07/23 12:27:32;;;;;;;7.20;6.80;;;;;;;;;;5036171;28;20439;-78
2022/07/23 12:30:00;;;;;;;7.27;6.77;;;;;;;;;;5035060;28;20492;-78
2022/07/23 12:32:28;;;;;;;6.80;6.30;;;;;;;;;;5035154;28;20482;-77
2022/07/23 12:35:04;;;;;;;6.40;6.00;;;;;;;;;;5038753;28;20443;-77
2022/07/23 12:37:32;;;;;;;6.70;6.30;;;;;;;;;;5020292;28;20948;-78
2022/07/23 12:40:00;;;;;;;7.40;6.90;;;;;;;;;;5017367;28;20850;-77
2022/07/23 12:42:27;;;;;;;7.73;7.00;;;;;;;;;;5016284;28;20443;-78
2022/07/23 12:45:14;;;;;;;7.03;6.63;;;;;;;;;;5016071;28;20478;-77
2022/07/23 12:47:54;;;;;;;7.60;7.10;;;;;;;;;;5016004;28;20447;-79
2022/07/23 12:50:41;;;;;;;7.50;7.00;;;;;;;;;;5016889;28;20830;-78
2022/07/23 12:53:10;;;;;;;7.43;6.93;;;;;;;;;;5016333;28;20990;-78
2022/07/23 12:55:37;;;;;;;7.63;7.03;;;;;;;;;;5014154;28;20447;-77
2022/07/23 12:58:05;;;;;;;7.80;7.10;;;;;;;;;;5014260;28;20855;-77
2022/07/23 13:00:34;;;;;;;7.10;6.60;;;;;;;;;;5010261;28;20542;-77
2022/07/23 13:03:01;;;;;;;7.67;7.07;;;;;;;;;;5014121;28;21008;-77
2022/07/23 13:05:28;;;;;;;8.00;7.50;;;;;;;;;;5014531;28;20452;-78
2022/07/23 13:07:55;;;;;;;7.20;6.73;;;;;;;;;;5014181;28;20440;-78
2022/07/23 13:10:22;;;;;;;8.23;7.63;;;;;;;;;;5004277;28;20445;-78
2022/07/23 13:12:49;;;;;;;7.40;7.00;;;;;;;;;;5015261;28;20491;-76
2022/07/23 13:15:16;;;;;;;7.10;6.70;;;;;;;;;;5004766;28;20455;-77
2022/07/23 13:17:45;;;;;;;6.97;6.37;;;;;;;;;;4994880;28;20456;-76
2022/07/23 13:20:13;;;;;;;7.60;6.97;;;;;;;;;;4994738;28;20463;-76
2022/07/23 13:22:40;;;;;;;7.00;6.50;;;;;;;;;;4994171;28;20436;-76
2022/07/23 13:25:07;;;;;;;6.73;6.27;;;;;;;;;;4993967;28;20855;-76
2022/07/23 13:27:34;;;;;;;7.20;6.70;;;;;;;;;;4992871;28;20444;-77
2022/07/23 13:30:01;;;;;;;7.57;7.13;;;;;;;;;;4993332;28;20959;-77
2022/07/23 13:32:28;;;;;;;7.57;7.07;;;;;;;;;;4994261;28;20472;-77
2022/07/23 13:34:57;;;;;;;7.50;6.97;;;;;;;;;;4995522;28;20448;-76
2022/07/23 13:37:24;;;;;;;7.07;6.47;;;;;;;;;;5000204;28;20825;-77
2022/07/23 13:39:51;;;;;;;8.80;8.20;;;;;;;;;;4995807;28;20456;-76
2022/07/23 13:42:18;;;;;;;8.50;7.90;;;;;;;;;;4993320;28;20503;-76
2022/07/23 13:44:45;;;;;;;7.90;7.40;;;;;;;;;;4993165;28;20527;-77
2022/07/23 13:47:12;;;;;;;7.77;7.17;;;;;;;;;;4994217;28;20448;-77
2022/07/23 13:49:39;;;;;;;7.90;7.40;;;;;;;;;;4993474;28;20457;-77
2022/07/23 13:52:07;;;;;;;7.53;7.00;;;;;;;;;;4993997;28;20858;-78
2022/07/23 13:54:34;;;;;;;8.20;7.50;;;;;;;;;;4993553;28;20500;-77
2022/07/23 13:57:01;;;;;;;8.43;7.83;;;;;;;;;;4994346;28;21023;-78
2022/07/23 13:59:28;;;;;;;7.00;6.60;;;;;;;;;;4996088;28;20567;-77
2022/07/23 14:01:56;;;;;;;7.60;7.00;;;;;;;;;;4998926;28;20441;-76
2022/07/23 14:04:23;;;;;;;8.10;7.60;;;;;;;;;;4993160;28;20476;-79
2022/07/23 14:06:50;;;;;;;8.30;7.70;;;;;;;;;;4993770;28;20452;-79
2022/07/23 14:09:18;;;;;;;8.60;8.10;;;;;;;;;;4997163;28;20470;-77
2022/07/23 14:11:45;;;;;;;8.80;8.17;;;;;;;;;;5012643;28;20448;-76
2022/07/23 14:14:12;;;;;;;8.87;8.17;;;;;;;;;;5011726;28;20483;-77
2022/07/23 14:16:39;;;;;;;8.33;7.73;;;;;;;;;;5012391;28;20451;-77
2022/07/23 14:19:06;;;;;;;8.43;7.83;;;;;;;;;;5012264;28;20451;-77
2022/07/23 14:21:33;;;;;;;8.73;7.93;;;;;;;;;;5011851;28;20439;-77
2022/07/23 14:24:00;;;;;;;7.80;7.20;;;;;;;;;;5012068;28;20459;-77
2022/07/23 14:26:29;;;;;;;7.87;7.37;;;;;;;;;;5012003;28;20578;-77
2022/07/23 14:28:56;;;;;;;8.17;7.67;;;;;;;;;;5012475;28;20501;-76
2022/07/23 14:31:23;;;;;;;7.90;7.33;;;;;;;;;;5011850;28;20497;-78
2022/07/23 14:33:50;;;;;;;8.73;8.10;;;;;;;;;;5011899;28;20494;-77
2022/07/23 14:36:17;;;;;;;8.10;7.57;;;;;;;;;;5011302;28;20439;-77
2022/07/23 14:38:44;;;;;;;7.20;6.73;;;;;;;;;;5011380;28;20435;-77
2022/07/23 14:41:11;;;;;;;8.37;7.77;;;;;;;;;;5011819;28;20479;-77
2022/07/23 14:43:40;;;;;;;8.13;7.57;;;;;;;;;;5010732;28;20455;-76
2022/07/23 14:46:08;;;;;;;9.47;8.57;;;;;;;;;;5011676;28;20871;-77
2022/07/23 14:48:35;;;;;;;7.30;6.90;;;;;;;;;;5011147;28;20480;-77
2022/07/23 14:51:02;;;;;;;8.20;7.60;;;;;;;;;;5011059;28;20481;-77
2022/07/23 14:53:29;;;;;;;8.57;7.97;;;;;;;;;;5012194;28;21087;-77